aviador You're here:

LFBD Decoded Metar

BORDEAUX in FRANCE
Report Time2018-07-18 20:00:00
UTC Time2018-07-18 20:07:57
Flight Rules vfr VFR
Wind010° at 03 kt
W.Decomp.*RWY 05: 2.3 kt HW 1.9 kt LCW
RWY 29: 0.5 kt HW 3.0 kt RCW
W.Rank010° ranks 14
Current wind is below 010° avg. (6.0)
Visibility9999 m
Phenomena:N/A
Clouds:N/A
Expected CloudBase > 1,600 ft AGL from Temp-Dew spread
CeilingNone
Temp23°C (ISA +8)
Dew Point19°C (78% RH)
QNH1016 hPa
Density Alt1,365 ft
Elevation200 ft
Report Wrong Elevation
Raw Report
METAR LFBD 182000Z AUTO 01003KT CAVOK 23/19 Q1016 NOSIG=

Extra information for LFBD:More info

Metar Taf Metar & Taf Last 4 Metars F.Rules Stats Wind Profile Meteogram Temp Stats Airport Information Weather charts Add Link Nearby VenuesMetar ALERT Operation Metar Decoded Social comments